createdAt,value
2022-08-08T00:00:53.802Z,80.20
2022-08-08T00:00:54.152Z,78.98
2022-08-08T00:02:03.158Z,78.41
2022-08-08T00:02:46.483Z,79.22
2022-08-08T00:03:45.271Z,78.20
2022-08-08T00:04:49.458Z,78.20
2022-08-08T00:06:02.746Z,79.93
2022-08-08T00:06:46.272Z,80.04
2022-08-08T00:07:45.179Z,80.89
2022-08-08T00:08:49.140Z,80.79
2022-08-08T00:09:45.150Z,81.95
2022-08-08T00:10:46.181Z,81.60
2022-08-08T00:11:46.601Z,81.54
2022-08-08T00:12:48.511Z,81.13
2022-08-08T00:14:15.333Z,81.54
2022-08-08T00:14:48.467Z,82.05
2022-08-08T00:15:56.511Z,80.62
2022-08-08T00:16:46.183Z,82.05
2022-08-08T00:18:02.408Z,80.58
2022-08-08T00:18:46.080Z,81.91
2022-08-08T00:19:51.236Z,81.40
2022-08-08T00:20:46.098Z,81.30
2022-08-08T00:21:45.105Z,80.79
2022-08-08T00:22:45.078Z,79.97
2022-08-08T00:23:51.067Z,80.48
2022-08-08T00:24:46.061Z,80.28
2022-08-08T00:25:50.625Z,79.57
2022-08-08T00:26:46.089Z,79.97
2022-08-08T00:27:45.038Z,79.66
2022-08-08T00:28:44.991Z,79.57
2022-08-08T00:29:46.968Z,79.77
2022-08-08T00:31:00.219Z,79.46
2022-08-08T00:32:28.742Z,80.69
2022-08-08T00:32:46.199Z,80.79
2022-08-08T00:34:17.319Z,81.81
2022-08-08T00:34:46.002Z,81.44
2022-08-08T00:35:48.185Z,80.52
2022-08-08T00:36:44.988Z,80.79
2022-08-08T00:37:57.025Z,79.36
2022-08-08T00:38:51.758Z,80.48
2022-08-08T00:41:10.273Z,80.07
2022-08-08T00:41:10.463Z,82.22
2022-08-08T00:42:08.073Z,81.54
2022-08-08T00:42:46.051Z,81.24
2022-08-08T00:43:46.007Z,82.09
2022-08-08T00:44:45.877Z,82.29
2022-08-08T00:45:44.880Z,82.20
2022-08-08T00:46:56.933Z,82.20
2022-08-08T00:48:02.070Z,81.07
2022-08-08T00:49:00.886Z,81.68
2022-08-08T00:49:57.728Z,81.88
2022-08-08T00:50:48.186Z,81.79
2022-08-08T00:51:45.861Z,81.03
2022-08-08T00:52:48.398Z,80.93
2022-08-08T00:54:04.132Z,82.29
2022-08-08T00:54:45.981Z,82.09
2022-08-08T00:55:53.755Z,82.50
2022-08-08T00:56:45.745Z,82.50
2022-08-08T00:57:44.767Z,82.40
2022-08-08T00:58:54.737Z,82.09
2022-08-08T00:59:46.419Z,81.82
2022-08-08T01:00:44.752Z,82.13
2022-08-08T01:01:45.779Z,82.23
2022-08-08T01:03:59.516Z,82.78
2022-08-08T01:04:01.688Z,83.25
2022-08-08T01:04:47.375Z,83.39
2022-08-08T01:05:59.339Z,84.11
2022-08-08T01:06:47.512Z,84.22
2022-08-08T01:07:55.403Z,83.81
2022-08-08T01:08:50.145Z,84.22
2022-08-08T01:09:48.732Z,84.72
2022-08-08T01:10:44.570Z,84.56
2022-08-08T01:11:51.821Z,84.25
2022-08-08T01:12:45.598Z,84.11
2022-08-08T01:13:45.959Z,84.11
2022-08-08T01:14:53.379Z,84.83
2022-08-08T01:15:53.261Z,85.14
2022-08-08T01:16:46.702Z,84.63
2022-08-08T01:17:55.566Z,84.31
2022-08-08T01:18:53.259Z,84.22
2022-08-08T01:20:02.670Z,83.56
2022-08-08T01:20:45.486Z,82.54
2022-08-08T01:22:10.308Z,82.37
2022-08-08T01:22:45.524Z,82.64
2022-08-08T01:24:02.697Z,82.34
2022-08-08T01:24:50.641Z,84.17
2022-08-08T01:25:45.469Z,84.72
2022-08-08T01:26:49.376Z,85.28
2022-08-08T01:27:46.326Z,85.28
2022-08-08T01:28:44.406Z,85.69
2022-08-08T01:29:59.709Z,84.97
2022-08-08T01:30:45.752Z,84.97
2022-08-08T01:32:13.641Z,84.56
2022-08-08T01:32:45.344Z,83.70
2022-08-08T01:34:00.210Z,84.83
2022-08-08T01:34:45.360Z,84.36
2022-08-08T01:35:44.331Z,84.05
2022-08-08T01:36:48.657Z,84.25
2022-08-08T01:37:57.398Z,83.29
2022-08-08T01:38:45.301Z,83.50
2022-08-08T01:39:44.338Z,84.93
2022-08-08T01:40:44.288Z,85.28
2022-08-08T01:41:44.328Z,84.63
2022-08-08T01:42:44.262Z,83.50
2022-08-08T01:43:44.310Z,82.78
2022-08-08T01:44:44.291Z,82.17
2022-08-08T01:45:45.281Z,82.57
2022-08-08T01:46:47.515Z,82.07
2022-08-08T01:48:13.847Z,82.17
2022-08-08T01:48:46.448Z,82.57
2022-08-08T01:49:44.203Z,82.64
2022-08-08T01:50:44.313Z,82.03
2022-08-08T01:52:29.367Z,81.76
2022-08-08T01:54:01.030Z,80.83
2022-08-08T01:55:17.772Z,82.57
2022-08-08T01:55:18.788Z,83.81
2022-08-08T01:56:28.325Z,84.22
2022-08-08T01:56:46.930Z,84.42
2022-08-08T01:58:11.929Z,83.33
2022-08-08T01:58:46.436Z,82.76
2022-08-08T02:00:02.361Z,82.35
2022-08-08T02:00:48.539Z,82.45
2022-08-08T02:02:00.207Z,82.96
2022-08-08T02:02:45.378Z,83.47
2022-08-08T02:03:56.827Z,82.96
2022-08-08T02:04:45.054Z,83.58
2022-08-08T02:05:56.910Z,83.78
2022-08-08T02:06:45.070Z,83.03
2022-08-08T02:07:48.786Z,83.03
2022-08-08T02:08:45.686Z,83.27
2022-08-08T02:10:02.720Z,82.62
2022-08-08T02:10:45.914Z,82.82
2022-08-08T02:11:59.523Z,82.82
2022-08-08T02:12:45.046Z,84.15
2022-08-08T02:13:53.708Z,83.23
2022-08-08T02:14:55.892Z,84.91
2022-08-08T02:15:44.978Z,85.42
2022-08-08T02:16:43.941Z,85.42
2022-08-08T02:17:43.949Z,85.42
2022-08-08T02:18:43.937Z,85.56
2022-08-08T02:20:07.801Z,85.97
2022-08-08T02:21:01.822Z,85.97
2022-08-08T02:21:44.864Z,85.87
2022-08-08T02:22:52.318Z,86.01
2022-08-08T02:23:44.870Z,86.22
2022-08-08T02:24:44.224Z,87.51
2022-08-08T02:25:48.479Z,86.73
2022-08-08T02:26:44.807Z,85.66
2022-08-08T02:27:43.989Z,84.64
2022-08-08T02:28:48.614Z,85.05
2022-08-08T02:29:51.594Z,84.74
2022-08-08T02:30:49.744Z,83.92
2022-08-08T02:31:59.588Z,83.78
2022-08-08T02:32:44.790Z,84.50
2022-08-08T02:34:00.585Z,86.07
2022-08-08T02:35:08.596Z,86.58
2022-08-08T02:36:04.280Z,86.07
2022-08-08T02:36:44.753Z,86.18
2022-08-08T02:37:51.966Z,85.97
2022-08-08T02:38:48.957Z,86.18
2022-08-08T02:40:00.289Z,87.04
2022-08-08T02:40:45.146Z,86.63
2022-08-08T02:41:58.942Z,87.59
2022-08-08T02:42:44.706Z,86.87
2022-08-08T02:44:37.769Z,86.83
2022-08-08T02:44:54.320Z,87.70
2022-08-08T02:45:54.035Z,85.91
2022-08-08T02:46:44.657Z,85.56
2022-08-08T02:47:46.765Z,85.19
2022-08-08T02:48:45.295Z,84.99
2022-08-08T02:49:47.828Z,84.99
2022-08-08T02:50:52.878Z,84.27
2022-08-08T02:51:55.202Z,84.33
2022-08-08T02:52:50.306Z,84.33
2022-08-08T02:53:44.568Z,84.06
2022-08-08T02:54:43.575Z,84.03
2022-08-08T02:55:43.564Z,83.92
2022-08-08T02:56:43.536Z,83.96
2022-08-08T02:57:44.440Z,83.86
2022-08-08T02:58:43.533Z,84.99
2022-08-08T02:59:57.660Z,86.28
2022-08-08T03:00:50.779Z,85.80
2022-08-08T03:01:50.109Z,85.09
2022-08-08T03:02:50.390Z,84.99
2022-08-08T03:05:00.988Z,84.95
2022-08-08T03:05:03.185Z,84.53
2022-08-08T03:05:45.449Z,84.53
2022-08-08T03:06:43.487Z,84.47
2022-08-08T03:07:57.967Z,84.84
2022-08-08T03:08:44.460Z,86.11
2022-08-08T03:09:44.433Z,86.01
2022-08-08T03:10:44.645Z,86.22
2022-08-08T03:12:01.005Z,84.92
2022-08-08T03:13:02.591Z,85.54
2022-08-08T03:15:58.630Z,85.74
2022-08-08T03:16:03.865Z,86.25
2022-08-08T03:16:04.029Z,86.05
2022-08-08T03:16:44.371Z,86.05
2022-08-08T03:17:43.406Z,87.38
2022-08-08T03:18:44.359Z,86.40
2022-08-08T03:19:50.669Z,86.05
2022-08-08T03:20:46.808Z,86.36
2022-08-08T03:21:58.199Z,86.57
2022-08-08T03:22:44.320Z,86.05
2022-08-08T03:23:59.508Z,85.54
2022-08-08T03:24:44.295Z,85.85
2022-08-08T03:25:43.257Z,85.03
2022-08-08T03:26:43.283Z,85.03
2022-08-08T03:27:43.323Z,85.13
2022-08-08T03:28:43.236Z,85.23
2022-08-08T03:29:56.166Z,84.72
2022-08-08T03:30:44.224Z,84.86
2022-08-08T03:32:05.287Z,85.58
2022-08-08T03:32:47.276Z,87.22
2022-08-08T03:33:55.739Z,87.22
2022-08-08T03:34:44.194Z,87.67
2022-08-08T03:35:43.159Z,87.16
2022-08-08T03:36:44.172Z,87.05
2022-08-08T03:38:53.207Z,87.57
2022-08-08T03:38:54.776Z,87.67
2022-08-08T03:39:51.994Z,87.12
2022-08-08T03:40:46.722Z,86.13
2022-08-08T03:42:27.229Z,85.47
2022-08-08T03:42:45.648Z,85.31
2022-08-08T03:43:43.119Z,85.62
2022-08-08T03:44:47.815Z,86.09
2022-08-08T03:46:04.964Z,86.09
2022-08-08T03:46:44.064Z,86.71
2022-08-08T03:47:45.971Z,87.77
2022-08-08T03:49:56.375Z,86.81
2022-08-08T03:49:59.776Z,86.44
2022-08-08T03:50:44.024Z,86.95
2022-08-08T03:51:51.446Z,86.85
2022-08-08T03:52:45.155Z,87.46
2022-08-08T03:53:47.588Z,89.15
2022-08-08T03:55:01.701Z,89.46
2022-08-08T03:55:56.629Z,89.25
2022-08-08T03:56:46.571Z,88.89
2022-08-08T03:58:31.630Z,89.76
2022-08-08T03:58:47.872Z,89.87
2022-08-08T04:00:02.533Z,89.15
2022-08-08T04:01:02.872Z,89.04
2022-08-08T04:02:12.631Z,87.61
2022-08-08T04:02:51.851Z,87.82
2022-08-08T04:03:58.018Z,88.59
2022-08-08T04:04:43.993Z,87.98
2022-08-08T04:05:48.120Z,86.99
2022-08-08T04:06:43.851Z,86.54
2022-08-08T04:07:42.865Z,86.24
2022-08-08T04:08:46.042Z,87.77
2022-08-08T04:10:02.991Z,87.16
2022-08-08T04:10:43.824Z,87.16
2022-08-08T04:11:57.972Z,86.33
2022-08-08T04:12:43.847Z,86.09
2022-08-08T04:14:03.631Z,86.03
2022-08-08T04:14:44.947Z,86.09
2022-08-08T04:15:55.210Z,86.60
2022-08-08T04:16:43.813Z,85.99
2022-08-08T04:17:58.013Z,85.38
2022-08-08T04:18:48.635Z,85.54
2022-08-08T04:19:43.730Z,85.54
2022-08-08T04:20:42.743Z,85.47
2022-08-08T04:21:45.714Z,85.68
2022-08-08T04:22:42.745Z,85.27
2022-08-08T04:24:19.322Z,85.27
2022-08-08T04:24:43.686Z,85.44
2022-08-08T04:25:43.665Z,86.46
2022-08-08T04:26:57.338Z,86.77
2022-08-08T04:28:03.008Z,86.05
2022-08-08T04:28:43.669Z,86.15
2022-08-08T04:29:55.051Z,86.05
2022-08-08T04:30:44.605Z,86.71
2022-08-08T04:31:59.658Z,86.71
2022-08-08T04:32:47.820Z,86.13
2022-08-08T04:33:43.613Z,85.82
2022-08-08T04:34:49.308Z,86.03
2022-08-08T04:35:50.869Z,87.67
2022-08-08T04:36:43.621Z,86.95
2022-08-08T04:37:43.555Z,87.71
2022-08-08T04:38:43.823Z,87.26
2022-08-08T04:40:05.763Z,87.77
2022-08-08T04:40:54.312Z,87.16
2022-08-08T04:41:43.555Z,87.77
2022-08-08T04:42:46.609Z,87.57
2022-08-08T04:43:46.903Z,87.67
2022-08-08T04:44:43.500Z,87.02
2022-08-08T04:45:42.495Z,87.02
2022-08-08T04:46:42.455Z,86.09
2022-08-08T04:47:46.448Z,86.19
2022-08-08T04:48:42.594Z,86.25
2022-08-08T04:50:01.621Z,86.46
2022-08-08T04:50:45.889Z,85.71
2022-08-08T04:51:55.031Z,85.91
2022-08-08T04:52:43.408Z,86.18
2022-08-08T04:54:36.130Z,86.22
2022-08-08T04:54:43.434Z,85.77
2022-08-08T04:55:55.604Z,85.56
2022-08-08T04:56:43.369Z,85.36
2022-08-08T04:57:42.365Z,85.11
2022-08-08T04:58:42.429Z,85.46
2022-08-08T04:59:42.739Z,85.87
2022-08-08T05:00:42.372Z,85.31
2022-08-08T05:01:48.392Z,85.72
2022-08-08T05:02:43.377Z,85.93
2022-08-08T05:04:08.363Z,85.83
2022-08-08T05:04:44.619Z,85.58
2022-08-08T05:05:45.411Z,85.79
2022-08-08T05:06:42.362Z,85.48
2022-08-08T05:07:42.791Z,85.34
2022-08-08T05:08:42.258Z,84.93
2022-08-08T05:09:42.254Z,84.99
2022-08-08T05:10:42.241Z,84.72
2022-08-08T05:11:42.253Z,84.79
2022-08-08T05:12:59.987Z,84.89
2022-08-08T05:13:58.191Z,84.99
2022-08-08T05:14:43.211Z,84.89
2022-08-08T05:16:52.129Z,84.38
2022-08-08T05:16:54.787Z,84.48
2022-08-08T05:17:54.138Z,84.89
2022-08-08T05:18:43.206Z,85.10
2022-08-08T05:20:11.421Z,85.30
2022-08-08T05:20:50.337Z,85.36
2022-08-08T05:21:43.705Z,85.06
2022-08-08T05:22:43.142Z,84.34
2022-08-08T05:23:46.083Z,84.14
2022-08-08T05:24:42.135Z,83.79
2022-08-08T05:25:43.238Z,83.79
2022-08-08T05:26:42.075Z,83.89
2022-08-08T05:27:44.426Z,83.59
2022-08-08T05:28:56.409Z,83.75
2022-08-08T05:29:43.090Z,83.44
2022-08-08T05:30:47.405Z,83.30
2022-08-08T05:32:03.577Z,82.28
2022-08-08T05:32:43.560Z,82.08
2022-08-08T05:33:44.242Z,82.39
2022-08-08T05:34:43.491Z,81.23
2022-08-08T05:35:42.016Z,81.49
2022-08-08T05:36:42.130Z,81.29
2022-08-08T05:37:52.929Z,80.88
2022-08-08T05:38:43.023Z,80.74
2022-08-08T05:39:42.016Z,80.02
2022-08-08T05:40:41.934Z,79.68
2022-08-08T05:41:46.294Z,79.27
2022-08-08T05:42:42.896Z,78.93
2022-08-08T05:44:03.734Z,77.30
2022-08-08T05:44:42.900Z,77.00
2022-08-08T05:45:53.063Z,77.87
2022-08-08T05:46:42.886Z,77.67
2022-08-08T05:47:59.804Z,77.17
2022-08-08T05:48:42.856Z,76.15
2022-08-08T05:49:41.894Z,75.81
2022-08-08T05:50:42.854Z,77.64
2022-08-08T05:51:48.472Z,76.42
2022-08-08T05:52:42.809Z,76.68
2022-08-08T05:54:24.886Z,76.28
2022-08-08T05:54:50.229Z,77.26
2022-08-08T05:56:07.875Z,76.45
2022-08-08T05:56:47.448Z,76.45
2022-08-08T05:58:04.538Z,76.21
2022-08-08T05:58:53.532Z,75.80
2022-08-08T05:59:53.674Z,75.40
2022-08-08T06:00:44.449Z,74.24
2022-08-08T06:01:55.565Z,74.34
2022-08-08T06:02:43.508Z,74.82
2022-08-08T06:03:42.102Z,75.39
2022-08-08T06:04:41.725Z,74.48
2022-08-08T06:05:42.688Z,74.58
2022-08-08T06:06:41.675Z,73.73
2022-08-08T06:07:43.790Z,73.22
2022-08-08T06:08:53.378Z,73.60
2022-08-08T06:10:00.360Z,72.48
2022-08-08T06:10:42.713Z,72.04
2022-08-08T06:11:46.006Z,71.67
2022-08-08T06:12:43.453Z,71.03
2022-08-08T06:13:47.256Z,72.34
2022-08-08T06:14:47.890Z,72.24
2022-08-08T06:15:53.329Z,72.14
2022-08-08T06:16:42.653Z,71.40
2022-08-08T06:17:50.866Z,71.50
2022-08-08T06:18:42.958Z,69.98
2022-08-08T06:19:41.646Z,71.00
2022-08-08T06:20:41.610Z,70.65
2022-08-08T06:21:48.821Z,71.47
2022-08-08T06:22:42.579Z,70.86
2022-08-08T06:23:53.126Z,71.13
2022-08-08T06:24:47.091Z,71.23
2022-08-08T06:26:39.010Z,71.50
2022-08-08T06:26:45.287Z,70.09
2022-08-08T06:27:47.582Z,68.87
2022-08-08T06:28:42.468Z,69.38
2022-08-08T06:29:56.830Z,68.94
2022-08-08T06:30:42.472Z,68.94
2022-08-08T06:32:09.103Z,67.52
2022-08-08T06:32:42.414Z,67.90
2022-08-08T06:34:25.505Z,67.29
2022-08-08T06:34:42.432Z,67.69
2022-08-08T06:36:09.241Z,69.08
2022-08-08T06:36:53.621Z,68.98
2022-08-08T06:37:43.669Z,68.24
2022-08-08T06:38:42.786Z,67.13
2022-08-08T06:39:56.111Z,65.31
2022-08-08T06:40:48.829Z,66.29
2022-08-08T06:41:42.328Z,67.19
2022-08-08T06:42:42.343Z,67.30
2022-08-08T06:43:41.315Z,67.19
2022-08-08T06:44:42.686Z,66.39
2022-08-08T06:45:42.293Z,66.76
2022-08-08T06:46:41.291Z,66.05
2022-08-08T06:47:52.705Z,65.45
2022-08-08T06:48:42.431Z,65.42
2022-08-08T06:49:56.858Z,65.32
2022-08-08T06:50:42.304Z,65.19
2022-08-08T06:51:49.055Z,65.29
2022-08-08T06:52:42.953Z,65.49
2022-08-08T06:53:50.835Z,65.36
2022-08-08T06:54:42.195Z,63.85
2022-08-08T06:55:41.684Z,63.54
2022-08-08T06:56:41.184Z,63.82
2022-08-08T06:57:54.801Z,63.82
2022-08-08T06:58:42.213Z,63.18
2022-08-08T07:00:02.548Z,64.56
2022-08-08T07:00:42.133Z,61.77
2022-08-08T07:02:17.232Z,61.20
2022-08-08T07:02:45.376Z,62.61
2022-08-08T07:04:35.034Z,62.81
2022-08-08T07:04:47.907Z,62.81
2022-08-08T07:05:43.113Z,61.40
2022-08-08T07:06:42.114Z,62.51
2022-08-08T07:07:41.136Z,63.01
2022-08-08T07:08:41.154Z,62.55
2022-08-08T07:09:45.312Z,61.61
2022-08-08T07:10:45.972Z,60.48
2022-08-08T07:11:50.623Z,60.55
2022-08-08T07:12:43.003Z,59.72
2022-08-08T07:14:00.563Z,60.06
2022-08-08T07:14:42.029Z,57.90
2022-08-08T07:16:05.599Z,56.70
2022-08-08T07:16:51.169Z,55.85
2022-08-08T07:18:01.451Z,55.79
2022-08-08T07:18:42.068Z,53.17
2022-08-08T07:19:40.968Z,52.84
2022-08-08T07:20:50.459Z,52.82
2022-08-08T07:21:41.950Z,52.99
2022-08-08T07:22:40.951Z,50.99
2022-08-08T07:24:01.818Z,49.30
2022-08-08T07:24:42.022Z,49.42
2022-08-08T07:25:54.087Z,49.80
2022-08-08T07:26:41.950Z,50.99
2022-08-08T07:27:46.974Z,49.57
2022-08-08T07:28:41.963Z,50.17
2022-08-08T07:30:02.533Z,50.17
2022-08-08T07:31:54.433Z,49.87
2022-08-08T07:32:29.903Z,50.42
2022-08-08T08:22:07.776Z,43.18
2022-08-08T08:22:16.028Z,42.96
2022-08-08T08:23:16.044Z,41.95
2022-08-08T08:24:15.539Z,43.93
2022-08-08T08:25:19.182Z,42.35
2022-08-08T08:26:15.058Z,40.47
2022-08-08T08:27:17.707Z,42.65
2022-08-08T08:28:21.167Z,43.24
2022-08-08T10:58:36.830Z,27.39
2022-08-08T10:59:22.246Z,26.91
2022-08-08T11:00:21.272Z,29.06
2022-08-08T11:01:21.762Z,27.59
2022-08-08T11:02:22.336Z,29.48
2022-08-08T11:03:36.340Z,29.27
2022-08-08T11:04:29.531Z,27.22
2022-08-08T11:05:23.073Z,27.25
2022-08-08T11:06:21.147Z,29.43
2022-08-08T11:08:30.188Z,27.44
2022-08-08T11:08:38.865Z,28.23
2022-08-08T11:09:22.959Z,27.85
2022-08-08T11:10:28.797Z,28.34
2022-08-08T11:11:59.759Z,27.34
2022-08-08T11:12:22.114Z,27.25
2022-08-08T11:13:31.737Z,28.61
2022-08-08T11:14:26.256Z,29.87
2022-08-08T11:15:21.083Z,28.45
2022-08-08T11:16:32.153Z,27.63
2022-08-08T11:17:58.621Z,27.23
2022-08-08T11:18:22.043Z,28.68
2022-08-08T11:19:21.071Z,28.85
2022-08-08T11:20:27.711Z,28.33
2022-08-08T11:21:22.005Z,27.03
2022-08-08T11:22:20.991Z,27.59
2022-08-08T11:23:21.998Z,26.02
2022-08-08T11:24:20.970Z,27.58
2022-08-08T11:25:20.992Z,24.27
2022-08-08T11:26:27.904Z,26.74
2022-08-08T11:27:23.466Z,26.48
2022-08-08T11:28:21.947Z,25.11
2022-08-08T11:29:20.972Z,25.90
2022-08-08T11:30:24.955Z,28.32
2022-08-08T11:31:21.903Z,24.40
2022-08-08T11:32:20.895Z,24.40
2022-08-08T11:33:21.908Z,24.78
2022-08-08T11:34:23.551Z,22.34
2022-08-08T11:35:27.314Z,24.40
2022-08-08T11:36:21.855Z,24.53
2022-08-08T11:38:34.677Z,25.05
2022-08-08T11:38:35.184Z,26.12
2022-08-08T11:39:21.850Z,25.24
2022-08-08T11:40:25.768Z,25.82
2022-08-08T11:41:21.803Z,26.21
2022-08-08T11:42:26.695Z,26.03
2022-08-08T11:43:24.509Z,24.95
2022-08-08T11:44:28.783Z,25.05
2022-08-08T11:45:21.770Z,25.35
2022-08-08T11:46:20.762Z,25.07
2022-08-08T11:47:21.029Z,25.10
2022-08-08T11:48:20.995Z,25.79
2022-08-08T11:49:20.729Z,25.85
2022-08-08T11:50:23.481Z,26.38
2022-08-08T11:51:29.888Z,26.63
2022-08-08T11:52:27.402Z,27.34
2022-08-08T11:53:24.356Z,30.07
2022-08-08T11:54:31.203Z,28.75
2022-08-08T11:55:21.674Z,25.68
2022-08-08T11:56:20.660Z,28.33
2022-08-08T11:57:23.859Z,28.00
2022-08-08T11:58:21.784Z,26.98
2022-08-08T11:59:20.647Z,27.91
2022-08-08T12:00:21.618Z,25.45
2022-08-08T12:01:20.619Z,23.47
2022-08-08T12:02:32.631Z,24.56
2022-08-08T12:03:21.658Z,25.04
2022-08-08T12:04:20.608Z,22.73
2022-08-08T12:05:22.765Z,24.96
2022-08-08T12:06:20.566Z,22.35
2022-08-08T12:07:20.554Z,24.30
2022-08-08T12:08:20.556Z,24.69
2022-08-08T12:09:20.536Z,23.23
2022-08-08T12:10:20.533Z,26.54
2022-08-08T12:11:27.075Z,27.23
2022-08-08T12:12:28.552Z,24.99
2022-08-08T12:13:38.319Z,23.43
2022-08-08T12:14:22.682Z,24.99
2022-08-08T12:15:41.766Z,27.61
2022-08-08T12:16:31.712Z,24.28
2022-08-08T12:17:23.355Z,24.88
2022-08-08T12:18:24.295Z,23.30
2022-08-08T12:19:22.118Z,22.83
2022-08-08T12:20:23.276Z,23.60
2022-08-08T12:21:21.763Z,24.96
2022-08-08T12:22:23.310Z,24.29
2022-08-08T12:23:30.502Z,24.71
2022-08-08T12:24:28.033Z,24.71
2022-08-08T12:25:24.714Z,28.09
2022-08-08T12:26:28.567Z,24.96
2022-08-08T12:27:26.485Z,22.60
2022-08-08T12:28:21.915Z,23.19
2022-08-08T12:29:55.530Z,23.39
2022-08-08T12:30:51.059Z,23.58
2022-08-08T12:31:22.572Z,24.74
2022-08-08T12:32:24.891Z,23.35
2022-08-08T12:33:21.512Z,24.91
2022-08-08T12:35:54.458Z,23.67
2022-08-08T12:35:56.048Z,23.30
2022-08-08T12:36:56.910Z,22.14
2022-08-08T12:38:02.187Z,23.52
2022-08-08T12:43:47.794Z,25.31
2022-08-08T12:44:39.642Z,24.80
2022-08-08T12:45:57.829Z,23.51
2022-08-08T12:46:39.643Z,23.41
2022-08-08T12:48:04.389Z,23.71
2022-08-08T12:48:39.697Z,24.11
2022-08-08T12:49:43.066Z,24.63
2022-08-08T12:50:39.588Z,25.83
2022-08-08T12:51:39.839Z,26.44
2022-08-08T12:52:40.444Z,27.40
2022-08-08T12:53:42.403Z,27.09
2022-08-08T12:54:40.867Z,25.02
2022-08-08T12:56:05.924Z,27.39
2022-08-08T12:56:39.571Z,25.95
2022-08-08T12:57:49.899Z,27.04
2022-08-08T12:58:39.599Z,28.31
2022-08-08T12:59:45.130Z,29.91
2022-08-08T13:00:39.552Z,28.83
2022-08-08T13:01:38.563Z,28.34
2022-08-08T13:02:42.201Z,29.69
2022-08-08T13:03:41.956Z,28.15
2022-08-08T13:04:38.465Z,24.68
2022-08-08T13:06:05.634Z,24.67
2022-08-08T13:06:39.438Z,23.40
2022-08-08T13:08:02.857Z,24.08
2022-08-08T13:08:39.441Z,24.00
2022-08-08T13:09:43.353Z,24.24
2022-08-08T13:10:46.130Z,25.90
2022-08-08T13:12:17.973Z,24.02
2022-08-08T13:12:44.461Z,25.49
2022-08-08T13:13:39.391Z,24.50
2022-08-08T13:14:38.366Z,24.11
2022-08-08T13:15:40.535Z,24.69
2022-08-08T13:16:39.541Z,24.10
2022-08-08T13:18:09.181Z,23.61
2022-08-08T13:18:55.754Z,24.10
2022-08-08T13:19:49.634Z,24.58
2022-08-08T13:20:40.541Z,24.49
2022-08-08T13:21:53.711Z,24.68
2022-08-08T13:22:40.565Z,24.30
2022-08-08T13:23:46.558Z,24.51
2022-08-08T13:24:48.102Z,25.26
2022-08-08T13:25:40.457Z,24.49
2022-08-08T13:26:39.413Z,23.60
2022-08-08T13:27:40.418Z,25.04
2022-08-08T13:28:42.098Z,24.27
2022-08-08T13:29:40.942Z,23.66
2022-08-08T13:30:39.381Z,26.67
2022-08-08T13:31:39.386Z,23.33
2022-08-08T13:32:39.704Z,25.95
2022-08-08T13:33:42.689Z,24.28
2022-08-08T13:35:02.147Z,23.22
2022-08-08T13:38:06.331Z,24.58
2022-08-08T13:38:52.885Z,23.22
2022-08-08T13:40:44.581Z,22.08
2022-08-08T13:44:11.020Z,23.43
2022-08-08T13:47:18.266Z,25.67
2022-08-08T13:47:58.199Z,25.27
2022-08-08T13:50:34.830Z,25.74
2022-08-08T13:50:35.329Z,23.11
2022-08-08T13:51:33.414Z,23.69
2022-08-08T13:51:55.805Z,23.01
2022-08-08T13:52:55.570Z,24.10
2022-08-08T13:54:00.007Z,25.57
2022-08-08T13:54:55.748Z,24.11
2022-08-08T13:55:54.792Z,24.71
2022-08-08T13:56:59.928Z,25.32
2022-08-08T13:58:07.812Z,26.01
2022-08-08T13:58:57.387Z,25.72
2022-08-08T13:59:54.726Z,28.16
2022-08-08T14:00:54.803Z,27.28
2022-08-08T14:01:57.187Z,26.28
2022-08-08T14:02:54.960Z,26.56
2022-08-08T14:03:56.043Z,27.42
2022-08-08T14:04:55.672Z,24.98
2022-08-08T14:06:01.147Z,26.62
2022-08-08T14:06:55.693Z,23.03
2022-08-08T14:07:59.534Z,24.41
2022-08-08T14:09:24.443Z,24.21
2022-08-08T14:10:04.343Z,25.20
2022-08-08T14:11:55.883Z,25.65
2022-08-08T14:12:54.595Z,25.92
2022-08-08T14:14:00.416Z,24.65
2022-08-08T14:14:55.607Z,24.56
2022-08-08T14:15:54.615Z,23.43
2022-08-08T14:16:55.460Z,24.51
2022-08-08T14:18:35.789Z,24.25
2022-08-08T16:13:02.254Z,29.72
2022-08-08T16:13:03.640Z,29.33
2022-08-08T16:13:13.851Z,29.92
2022-08-08T16:13:20.476Z,29.24
2022-08-08T16:13:45.799Z,29.72
2022-08-08T16:14:34.773Z,29.43
2022-08-08T16:15:33.773Z,29.63
2022-08-08T16:16:36.386Z,31.10
2022-08-08T16:18:06.443Z,30.32
2022-08-08T16:18:38.806Z,28.85
2022-08-08T16:20:00.148Z,29.74
2022-08-08T16:20:34.723Z,31.11
2022-08-08T16:21:33.708Z,30.32
2022-08-08T16:22:35.415Z,29.24
2022-08-08T16:23:39.943Z,29.46
2022-08-08T16:24:39.061Z,31.31
2022-08-08T16:25:45.905Z,29.93
2022-08-08T16:26:35.795Z,31.11
2022-08-08T16:27:42.489Z,30.02
2022-08-08T16:28:37.342Z,32.38
2022-08-08T16:30:08.754Z,31.00
2022-08-08T16:30:36.652Z,31.59
2022-08-08T16:31:33.608Z,30.21
2022-08-08T16:32:33.797Z,29.83
2022-08-08T16:33:38.081Z,29.53
2022-08-08T16:34:34.608Z,29.93
2022-08-08T16:35:33.592Z,29.93
2022-08-08T16:36:34.376Z,29.85
2022-08-08T16:37:33.551Z,32.01
2022-08-08T16:38:33.552Z,30.54
2022-08-08T16:40:00.506Z,32.01
2022-08-08T16:40:34.612Z,29.94
2022-08-08T16:41:33.559Z,31.62
2022-08-08T16:42:34.913Z,32.52
2022-08-08T16:43:42.039Z,32.32
2022-08-08T16:44:34.698Z,32.90
2022-08-08T16:46:37.653Z,31.44
2022-08-08T16:46:44.863Z,33.29
2022-08-08T16:47:42.144Z,32.21
2022-08-08T16:48:37.026Z,33.39
2022-08-08T16:49:38.537Z,31.13
2022-08-08T16:50:35.352Z,32.82
2022-08-08T16:55:01.614Z,31.54
2022-08-08T16:55:02.064Z,31.83
2022-08-08T16:55:04.079Z,32.62
2022-08-08T16:55:06.025Z,31.44
2022-08-08T16:55:55.652Z,31.95
2022-08-08T16:56:34.376Z,32.92
2022-08-08T16:58:16.619Z,30.85
2022-08-08T16:58:34.881Z,30.85
2022-08-08T16:59:50.796Z,32.14
2022-08-08T17:00:34.405Z,31.56
2022-08-08T17:01:35.623Z,32.56
2022-08-08T17:02:39.742Z,32.65
2022-08-08T17:03:58.973Z,32.95
2022-08-08T17:04:34.291Z,31.96
2022-08-08T17:05:45.092Z,33.15
2022-08-08T17:06:43.385Z,33.44
2022-08-08T17:07:37.549Z,31.96
2022-08-08T17:08:34.421Z,31.47
2022-08-08T17:09:44.885Z,31.17
2022-08-08T17:10:35.394Z,32.35
2022-08-08T17:11:39.294Z,31.29
2022-08-08T17:12:36.687Z,32.37
2022-08-08T17:13:49.822Z,33.85
2022-08-08T17:14:35.353Z,33.06
2022-08-08T17:15:34.594Z,32.18
2022-08-08T17:16:35.342Z,33.65
2022-08-08T17:18:01.279Z,35.05
2022-08-08T17:18:35.340Z,34.06
2022-08-08T17:19:41.052Z,33.36
2022-08-08T17:20:39.494Z,34.66
2022-08-08T17:21:34.326Z,33.28
2022-08-08T17:22:42.159Z,34.34
2022-08-08T17:24:00.375Z,33.65
2022-08-08T17:24:35.294Z,32.97
2022-08-08T17:25:51.973Z,33.16
2022-08-08T17:26:35.296Z,33.67
2022-08-08T17:27:46.285Z,32.88
2022-08-08T17:28:35.723Z,33.87
2022-08-08T17:29:36.498Z,34.46
2022-08-08T17:30:35.205Z,34.86
2022-08-08T17:31:44.373Z,33.77
2022-08-08T17:34:30.261Z,33.58
2022-08-08T17:34:37.434Z,35.64
2022-08-08T17:35:04.213Z,35.94
2022-08-08T17:35:54.418Z,34.17
2022-08-08T17:36:35.164Z,34.66
2022-08-08T17:37:34.183Z,35.14
2022-08-08T17:38:34.140Z,34.17
2022-08-08T17:40:03.211Z,33.85
2022-08-08T17:40:35.164Z,33.87
2022-08-08T17:41:38.889Z,33.67
2022-08-08T17:42:35.102Z,33.08
2022-08-08T17:44:01.189Z,33.87
2022-08-08T17:44:37.451Z,33.59
2022-08-08T17:45:36.509Z,35.57
2022-08-08T17:46:34.070Z,35.19
2022-08-08T17:47:40.141Z,34.39
2022-08-08T17:48:35.034Z,34.31
2022-08-08T17:49:42.715Z,34.61
2022-08-08T17:50:35.016Z,34.51
2022-08-08T17:51:34.054Z,34.81
2022-08-08T17:52:35.403Z,35.21
2022-08-08T17:53:43.122Z,35.30
2022-08-08T17:54:35.329Z,35.52
2022-08-08T17:56:06.677Z,36.39
2022-08-08T17:56:34.989Z,34.92
2022-08-08T17:57:35.438Z,34.83
2022-08-08T17:58:34.047Z,35.02
2022-08-08T17:59:36.406Z,35.12
2022-08-08T18:00:38.999Z,35.02
2022-08-08T18:01:50.971Z,34.94
2022-08-08T18:02:35.997Z,36.92
2022-08-08T18:03:33.976Z,35.63
2022-08-08T18:04:33.884Z,36.54
2022-08-08T18:05:44.154Z,37.24
2022-08-08T18:06:34.895Z,37.24
2022-08-08T18:08:02.187Z,36.74
2022-08-08T18:08:38.187Z,36.05
2022-08-08T18:09:37.980Z,36.15
2022-08-08T18:10:33.829Z,36.54
2022-08-08T18:11:36.579Z,36.66
2022-08-08T18:12:33.848Z,37.13
2022-08-08T18:13:35.040Z,36.35